createdAt,value
2018-01-17T00:01:25.761Z,6.40
2018-01-17T00:03:53.366Z,7.20
2018-01-17T00:06:21.650Z,6.60
2018-01-17T00:08:49.161Z,6.60
2018-01-17T00:11:16.683Z,6.30
2018-01-17T00:13:44.156Z,6.30
2018-01-17T00:16:11.668Z,6.50
2018-01-17T00:18:39.932Z,6.60
2018-01-17T00:21:08.201Z,6.40
2018-01-17T00:23:35.842Z,6.40
2018-01-17T00:26:03.344Z,6.40
2018-01-17T00:28:31.576Z,6.20
2018-01-17T00:30:59.057Z,6.20
2018-01-17T00:33:26.574Z,6.40
2018-01-17T00:35:54.056Z,6.30
2018-01-17T00:38:21.537Z,6.60
2018-01-17T00:40:49.829Z,6.10
2018-01-17T00:43:18.115Z,6.30
2018-01-17T00:45:46.392Z,6.20
2018-01-17T00:48:14.662Z,5.90
2018-01-17T00:50:42.904Z,5.70
2018-01-17T00:53:10.382Z,5.70
2018-01-17T00:55:37.901Z,5.70
2018-01-17T00:58:05.398Z,5.90
2018-01-17T01:00:32.919Z,6.10
2018-01-17T01:03:00.426Z,5.70
2018-01-17T01:05:27.905Z,5.70
2018-01-17T01:07:56.151Z,5.60
2018-01-17T01:10:23.657Z,5.60
2018-01-17T01:12:51.145Z,5.70
2018-01-17T01:15:18.624Z,5.50
2018-01-17T01:17:46.129Z,5.70
2018-01-17T01:20:13.614Z,6.30
2018-01-17T01:22:41.106Z,6.20
2018-01-17T01:25:08.627Z,6.40
2018-01-17T01:27:36.217Z,5.90
2018-01-17T01:30:03.825Z,5.80
2018-01-17T01:32:32.217Z,5.60
2018-01-17T01:34:59.812Z,5.50
2018-01-17T01:37:27.384Z,5.50
2018-01-17T01:39:54.982Z,5.90
2018-01-17T01:42:23.341Z,5.40
2018-01-17T01:44:50.913Z,5.40
2018-01-17T01:47:19.285Z,5.90
2018-01-17T01:49:46.872Z,5.90
2018-01-17T01:52:14.545Z,5.60
2018-01-17T01:54:42.166Z,6.10
2018-01-17T01:57:09.741Z,5.80
2018-01-17T01:59:37.332Z,5.50
2018-01-17T02:02:04.933Z,5.60
2018-01-17T02:04:32.402Z,5.60
2018-01-17T02:06:59.887Z,5.60
2018-01-17T02:09:28.148Z,5.50
2018-01-17T02:11:55.628Z,5.40
2018-01-17T02:14:23.866Z,5.50
2018-01-17T02:16:51.388Z,5.50
2018-01-17T02:19:18.983Z,5.50
2018-01-17T02:21:46.456Z,5.50
2018-01-17T02:24:13.947Z,5.40
2018-01-17T02:26:42.192Z,5.70
2018-01-17T02:29:09.693Z,5.70
2018-01-17T02:31:37.202Z,5.40
2018-01-17T02:34:04.711Z,5.60
2018-01-17T02:36:32.228Z,5.40
2018-01-17T02:38:59.747Z,5.20
2018-01-17T02:41:27.232Z,5.10
2018-01-17T02:43:54.772Z,5.70
2018-01-17T02:46:22.301Z,5.50
2018-01-17T02:48:50.545Z,5.30
2018-01-17T02:51:18.809Z,5.50
2018-01-17T02:53:46.327Z,5.40
2018-01-17T02:56:13.850Z,5.30
2018-01-17T02:58:41.350Z,5.20
2018-01-17T03:01:08.869Z,5.20
2018-01-17T03:03:36.376Z,5.20
2018-01-17T03:06:03.858Z,5.30
2018-01-17T03:08:31.359Z,7.10
2018-01-17T03:10:59.608Z,6.90
2018-01-17T03:13:27.095Z,6.90
2018-01-17T03:15:55.356Z,7.10
2018-01-17T03:18:22.837Z,7.10
2018-01-17T03:20:51.084Z,5.80
2018-01-17T03:23:18.596Z,5.80
2018-01-17T03:25:46.084Z,5.60
2018-01-17T03:28:13.572Z,5.70
2018-01-17T03:30:41.829Z,5.50
2018-01-17T03:33:09.309Z,5.50
2018-01-17T03:35:36.821Z,5.50
2018-01-17T03:40:47.121Z,5.30
2018-01-17T03:43:14.758Z,5.20
2018-01-17T03:45:42.327Z,5.50
2018-01-17T03:48:09.933Z,5.80
2018-01-17T03:50:37.545Z,5.80
2018-01-17T03:53:05.153Z,5.40
2018-01-17T03:55:32.740Z,5.70
2018-01-17T03:58:01.119Z,6.00
2018-01-17T04:00:29.449Z,5.70
2018-01-17T04:02:57.049Z,5.70
2018-01-17T04:05:25.430Z,5.30
2018-01-17T04:07:53.785Z,5.20
2018-01-17T04:10:21.363Z,5.10
2018-01-17T04:12:49.624Z,5.20
2018-01-17T04:15:17.103Z,5.10
2018-01-17T04:17:45.371Z,5.00
2018-01-17T04:20:12.860Z,5.00
2018-01-17T04:22:40.353Z,5.00
2018-01-17T04:25:07.821Z,4.90
2018-01-17T04:27:35.353Z,4.90
2018-01-17T04:30:02.880Z,4.80
2018-01-17T04:32:31.148Z,4.70
2018-01-17T04:34:58.652Z,4.70
2018-01-17T04:37:26.137Z,4.90
2018-01-17T04:39:53.637Z,5.00
2018-01-17T04:42:21.904Z,5.00
2018-01-17T04:44:50.144Z,5.00
2018-01-17T04:47:17.616Z,4.90
2018-01-17T04:49:45.120Z,5.00
2018-01-17T04:52:12.700Z,5.10
2018-01-17T04:54:40.245Z,4.90
2018-01-17T04:57:08.489Z,4.90
2018-01-17T04:59:36.299Z,4.80
2018-01-17T05:02:03.787Z,5.00
2018-01-17T05:04:31.290Z,4.60
2018-01-17T05:06:59.530Z,4.40
2018-01-17T05:09:27.053Z,4.40
2018-01-17T05:11:54.561Z,4.40
2018-01-17T05:14:22.056Z,4.40
2018-01-17T05:16:50.298Z,4.20
2018-01-17T05:19:17.807Z,4.20
2018-01-17T05:21:45.285Z,4.20
2018-01-17T05:24:12.763Z,4.20
2018-01-17T05:26:40.260Z,4.20
2018-01-17T05:29:08.578Z,4.30
2018-01-17T05:31:36.081Z,4.30
2018-01-17T05:34:04.357Z,6.30
2018-01-17T05:36:32.608Z,7.30
2018-01-17T05:39:00.108Z,7.20
2018-01-17T05:41:28.377Z,7.80
2018-01-17T05:43:56.612Z,6.50
2018-01-17T05:46:24.092Z,6.50
2018-01-17T05:48:51.591Z,6.10
2018-01-17T05:51:19.092Z,5.80
2018-01-17T05:53:46.585Z,5.40
2018-01-17T05:56:14.860Z,5.80
2018-01-17T05:58:42.347Z,5.70
2018-01-17T06:01:09.852Z,5.80
2018-01-17T06:03:37.348Z,5.70
2018-01-17T06:06:05.684Z,5.30
2018-01-17T06:08:33.174Z,5.30
2018-01-17T06:11:00.714Z,5.80
2018-01-17T06:13:28.196Z,5.10
2018-01-17T06:15:57.406Z,4.90
2018-01-17T06:18:25.131Z,4.90
2018-01-17T06:20:52.617Z,5.10
2018-01-17T06:23:20.101Z,5.00
2018-01-17T06:25:47.618Z,5.40
2018-01-17T06:28:15.132Z,5.20
2018-01-17T06:30:42.654Z,5.20
2018-01-17T06:33:10.158Z,5.30
2018-01-17T06:35:37.697Z,4.90
2018-01-17T06:38:05.993Z,5.70
2018-01-17T06:40:33.585Z,5.70
2018-01-17T06:43:01.147Z,5.60
2018-01-17T06:45:28.626Z,5.20
2018-01-17T06:47:56.748Z,5.10
2018-01-17T06:50:24.258Z,5.30
2018-01-17T06:52:51.809Z,5.20
2018-01-17T06:55:19.326Z,5.20
2018-01-17T06:57:46.812Z,5.80
2018-01-17T07:00:14.281Z,6.30
2018-01-17T07:02:41.783Z,6.20
2018-01-17T07:05:10.133Z,7.60
2018-01-17T07:07:38.554Z,7.60
2018-01-17T07:10:07.049Z,7.60
2018-01-17T07:12:34.538Z,6.70
2018-01-17T07:15:02.048Z,6.20
2018-01-17T07:17:30.330Z,5.90
2018-01-17T07:19:57.967Z,5.90
2018-01-17T07:22:26.213Z,5.20
2018-01-17T07:24:53.707Z,5.20
2018-01-17T07:27:21.956Z,5.30
2018-01-17T07:29:49.482Z,5.30
2018-01-17T07:32:17.024Z,5.20
2018-01-17T07:34:44.526Z,5.10
2018-01-17T07:37:12.016Z,5.30
2018-01-17T07:39:40.292Z,5.60
2018-01-17T07:42:07.832Z,5.50
2018-01-17T07:44:35.337Z,5.70
2018-01-17T07:47:03.357Z,5.80
2018-01-17T07:49:30.892Z,6.10
2018-01-17T07:51:58.373Z,6.80
2018-01-17T07:54:25.932Z,8.20
2018-01-17T07:56:53.428Z,8.80
2018-01-17T07:59:21.755Z,10.40
2018-01-17T08:01:49.257Z,10.30
2018-01-17T08:56:22.718Z,10.00
2018-01-17T08:58:51.345Z,10.60
2018-01-17T09:01:19.624Z,11.50
2018-01-17T09:03:47.100Z,11.50
2018-01-17T09:06:14.592Z,12.50
2018-01-17T09:08:42.101Z,11.50
2018-01-17T09:21:06.162Z,11.00
2018-01-17T09:23:33.850Z,11.00
2018-01-17T09:33:28.633Z,11.30
2018-01-17T09:35:56.112Z,11.20
2018-01-17T09:38:24.388Z,11.30
2018-01-17T09:43:22.141Z,11.20
2018-01-17T09:53:18.610Z,9.30
2018-01-17T10:00:46.087Z,13.60
2018-01-17T10:08:11.494Z,10.40
2018-01-17T10:32:58.617Z,8.90
2018-01-17T10:52:48.876Z,11.60
2018-01-17T11:25:06.143Z,13.20
2018-01-17T11:32:33.744Z,14.30
2018-01-17T11:35:02.516Z,13.80
2018-01-17T11:37:30.459Z,13.70
2018-01-17T11:39:58.910Z,14.70
2018-01-17T11:42:26.638Z,13.80
2018-01-17T11:44:55.085Z,14.00
2018-01-17T11:47:22.870Z,14.70
2018-01-17T11:49:51.627Z,15.70
2018-01-17T11:52:19.741Z,15.70
2018-01-17T11:54:47.997Z,15.20
2018-01-17T11:57:16.273Z,15.00
2018-01-17T11:59:44.548Z,15.00
2018-01-17T12:02:12.043Z,15.00
2018-01-17T12:04:39.552Z,16.00
2018-01-17T12:07:07.066Z,17.00
2018-01-17T12:09:34.553Z,16.60
2018-01-17T12:12:02.046Z,17.10
2018-01-17T12:14:30.316Z,16.00
2018-01-17T12:16:57.847Z,16.00
2018-01-17T12:21:55.450Z,17.80
2018-01-17T12:24:23.193Z,17.70
2018-01-17T12:26:51.664Z,17.70
2018-01-17T12:29:19.516Z,17.90
2018-01-17T12:31:47.020Z,18.40
2018-01-17T12:34:14.699Z,16.90
2018-01-17T12:36:42.484Z,16.70
2018-01-17T12:39:10.768Z,17.80
2018-01-17T12:41:39.350Z,17.80
2018-01-17T12:44:07.612Z,17.30
2018-01-17T12:46:36.753Z,17.40
2018-01-17T12:49:06.156Z,16.90
2018-01-17T12:54:04.329Z,16.90
2018-01-17T12:56:31.875Z,16.80
2018-01-17T12:59:00.629Z,18.00
2018-01-17T13:01:29.681Z,17.50
2018-01-17T13:03:59.242Z,16.80
2018-01-17T13:06:27.993Z,17.40
2018-01-17T13:13:53.761Z,16.40
2018-01-17T13:16:22.902Z,16.20
2018-01-17T13:18:51.856Z,17.10
2018-01-17T13:26:19.906Z,18.20
2018-01-17T13:28:49.483Z,17.30
2018-01-17T13:33:47.660Z,17.20
2018-01-17T13:38:44.352Z,16.40
2018-01-17T13:41:13.198Z,18.30
2018-01-17T13:46:10.147Z,17.90
2018-01-17T13:51:07.320Z,16.30
2018-01-17T13:56:04.382Z,17.50
2018-01-17T13:58:32.503Z,18.00
2018-01-17T14:01:01.737Z,17.10
2018-01-17T14:08:27.865Z,16.20
2018-01-17T14:10:56.629Z,18.00
2018-01-17T14:15:55.518Z,17.30
2018-01-17T14:25:52.828Z,16.20
2018-01-17T14:28:20.605Z,15.60
2018-01-17T14:30:49.605Z,16.30
2018-01-17T14:35:46.728Z,15.80
2018-01-17T14:38:15.376Z,15.90
2018-01-17T14:55:42.904Z,17.30
2018-01-17T14:58:10.591Z,17.20
2018-01-17T15:03:09.889Z,16.50
2018-01-17T15:13:08.198Z,16.70
2018-01-17T15:40:28.476Z,16.10
2018-01-17T15:57:53.584Z,15.80
2018-01-17T16:00:21.131Z,16.20
